Time;durP1;ratioP1;P1;durP2;ratioP2;P2;SDS_P1;SDS_P2;PMS_P1;PMS_P2;Temp;Humidity;BMP_temperature;BMP_pressure;BME280_temperature;BME280_humidity;BME280_pressure;Samples;Min_cycle;Max_cycle;Signal;HPM_P1;HPM_P2
2021/07/24 00:01:22;;;;;;;1.77;0.57;;;21.00;70.70;;;;;;5047481;28;20515;-75
2021/07/24 00:03:48;;;;;;;1.77;0.70;;;20.80;70.60;;;;;;5043111;28;20057;-75
2021/07/24 00:06:13;;;;;;;1.30;0.80;;;20.80;70.50;;;;;;5057913;28;20021;-75
2021/07/24 00:08:39;;;;;;;2.40;0.70;;;20.80;70.50;;;;;;5057890;28;20036;-75
2021/07/24 00:11:07;;;;;;;2.03;0.95;;;20.50;71.00;;;;;;5056738;28;20028;-75
2021/07/24 00:13:37;;;;;;;2.08;0.70;;;20.40;70.80;;;;;;5056110;28;20040;-74
2021/07/24 00:16:04;;;;;;;2.13;0.75;;;20.50;70.60;;;;;;5056031;28;20053;-75
2021/07/24 00:18:31;;;;;;;2.03;0.77;;;20.60;70.40;;;;;;5034847;28;20038;-75
2021/07/24 00:20:58;;;;;;;2.75;1.00;;;20.60;69.70;;;;;;5017863;28;20105;-75
2021/07/24 00:23:23;;;;;;;1.08;0.60;;;20.60;69.70;;;;;;5017543;28;20092;-75
2021/07/24 00:25:49;;;;;;;2.72;0.80;;;20.80;69.20;;;;;;5016339;28;20026;-75
2021/07/24 00:28:15;;;;;;;2.00;0.73;;;20.70;69.50;;;;;;5034924;28;20038;-75
2021/07/24 00:30:42;;;;;;;1.63;0.57;;;20.50;70.00;;;;;;5037383;28;20079;-75
2021/07/24 00:33:08;;;;;;;1.85;0.60;;;20.70;69.60;;;;;;5037200;28;20076;-75
2021/07/24 00:35:38;;;;;;;2.17;0.90;;;20.50;69.90;;;;;;5040830;28;20033;-75
2021/07/24 00:38:04;;;;;;;1.92;0.70;;;20.40;70.70;;;;;;5057266;28;20029;-75
2021/07/24 00:40:35;;;;;;;2.40;0.80;;;20.30;71.00;;;;;;5057214;28;20387;-74
2021/07/24 00:43:02;;;;;;;2.15;0.85;;;20.30;71.50;;;;;;5046463;28;20092;-75
2021/07/24 00:45:34;;;;;;;1.85;0.80;;;20.30;71.70;;;;;;5036984;28;20039;-74
2021/07/24 00:48:01;;;;;;;2.38;1.13;;;20.30;71.40;;;;;;5036679;28;20029;-75
2021/07/24 00:50:28;;;;;;;1.38;0.75;;;20.40;71.30;;;;;;5057042;28;20017;-74
2021/07/24 00:53:00;;;;;;;2.00;0.75;;;20.40;71.40;;;;;;5051378;28;20022;-74
2021/07/24 00:55:26;;;;;;;1.58;0.80;;;20.40;71.30;;;;;;5038280;28;20022;-75
2021/07/24 00:57:51;;;;;;;2.63;0.77;;;20.50;70.90;;;;;;5056832;28;20055;-75
2021/07/24 01:00:17;;;;;;;3.20;0.90;;;20.50;71.00;;;;;;5056641;28;20054;-75
2021/07/24 01:02:43;;;;;;;2.75;1.10;;;20.60;70.80;;;;;;5055086;28;20078;-75
2021/07/24 01:05:09;;;;;;;2.55;0.88;;;20.50;71.10;;;;;;5056815;28;20100;-75
2021/07/24 01:07:40;;;;;;;2.33;1.02;;;20.40;71.10;;;;;;5046096;28;20630;-75
2021/07/24 01:10:07;;;;;;;1.45;0.70;;;20.40;71.40;;;;;;5036680;28;20107;-75
2021/07/24 01:12:34;;;;;;;1.63;0.63;;;20.40;71.60;;;;;;5036930;28;20044;-75
2021/07/24 01:15:04;;;;;;;2.30;0.85;;;20.50;71.10;;;;;;5046938;28;20127;-74
2021/07/24 01:17:30;;;;;;;2.65;0.88;;;20.30;71.80;;;;;;5056393;28;20127;-75
2021/07/24 01:19:56;;;;;;;2.38;0.85;;;20.30;72.10;;;;;;5055163;28;20040;-75
2021/07/24 01:22:21;;;;;;;2.33;0.82;;;20.30;72.00;;;;;;5041558;28;20568;-75
2021/07/24 01:24:47;;;;;;;1.58;0.68;;;20.10;72.60;;;;;;5036224;28;20037;-74
2021/07/24 01:27:13;;;;;;;1.88;0.82;;;19.90;73.20;;;;;;5035704;28;20030;-75
2021/07/24 01:29:38;;;;;;;3.13;0.80;;;19.80;73.70;;;;;;5036275;28;20547;-75
2021/07/24 01:32:05;;;;;;;2.13;1.00;;;19.90;73.50;;;;;;5034731;28;20512;-75
2021/07/24 01:34:31;;;;;;;1.73;0.70;;;19.90;73.40;;;;;;5039647;28;20391;-75
2021/07/24 01:36:57;;;;;;;2.17;0.90;;;20.00;73.00;;;;;;5054538;28;20155;-75
2021/07/24 01:39:23;;;;;;;1.85;0.80;;;20.10;72.80;;;;;;5054384;28;20025;-74
2021/07/24 01:41:48;;;;;;;3.03;0.80;;;20.20;72.70;;;;;;5056083;28;20021;-75
2021/07/24 01:44:14;;;;;;;2.33;0.85;;;20.20;72.40;;;;;;5054225;28;20103;-75
2021/07/24 01:46:40;;;;;;;2.35;0.80;;;20.20;72.30;;;;;;5046498;28;20108;-75
2021/07/24 01:49:14;;;;;;;2.17;0.95;;;20.00;73.10;;;;;;5036056;28;20077;-74
2021/07/24 01:55:08;;;;;;;;;;;;;;;;;;;;;
2021/07/24 01:57:36;;;;;;;1.70;0.90;;;19.80;74.20;;;;;;5035771;28;20025;-75
2021/07/24 02:00:11;;;;;;;1.70;0.90;;;19.70;74.30;;;;;;5037154;28;20017;-75
2021/07/24 02:02:37;;;;;;;1.60;0.80;;;19.60;74.70;;;;;;5055822;28;20677;-74
2021/07/24 02:05:14;;;;;;;2.28;1.10;;;19.60;75.20;;;;;;5055693;28;20104;-75
2021/07/24 02:07:46;;;;;;;3.05;0.98;;;19.60;75.40;;;;;;5055535;28;20017;-75
2021/07/24 02:10:12;;;;;;;1.65;0.77;;;19.60;75.40;;;;;;5046955;28;20544;-75
2021/07/24 02:12:40;;;;;;;1.50;0.80;;;19.50;75.90;;;;;;5035633;28;20474;-75
2021/07/24 02:15:06;;;;;;;1.50;0.88;;;19.70;75.60;;;;;;5052698;28;20048;-75
2021/07/24 02:17:36;;;;;;;1.70;0.98;;;19.60;75.70;;;;;;5054037;28;20418;-75
2021/07/24 02:20:04;;;;;;;2.10;0.70;;;19.60;75.80;;;;;;5055330;28;20031;-74
2021/07/24 02:22:29;;;;;;;2.95;1.02;;;19.50;75.90;;;;;;5040871;28;20518;-74
2021/07/24 02:24:55;;;;;;;1.50;0.73;;;19.50;76.00;;;;;;5035409;28;20030;-74
2021/07/24 02:27:21;;;;;;;1.77;0.80;;;19.40;76.20;;;;;;5035425;28;20507;-75
2021/07/24 02:29:48;;;;;;;2.20;1.00;;;19.30;76.70;;;;;;5033276;28;20032;-75
2021/07/24 02:32:14;;;;;;;2.05;0.90;;;19.40;76.60;;;;;;5054868;28;20079;-75
2021/07/24 02:34:40;;;;;;;2.15;0.90;;;19.40;76.30;;;;;;5055161;28;20479;-75
2021/07/24 02:37:05;;;;;;;2.03;0.95;;;19.50;76.00;;;;;;5055197;28;20104;-75
2021/07/24 02:39:31;;;;;;;1.98;1.00;;;19.50;76.20;;;;;;5047544;28;20863;-75
2021/07/24 02:41:57;;;;;;;1.83;1.10;;;19.40;76.40;;;;;;5033823;28;20435;-74
2021/07/24 02:44:22;;;;;;;2.10;1.08;;;19.30;76.60;;;;;;5035036;28;20029;-75
2021/07/24 02:46:50;;;;;;;2.25;1.00;;;19.40;76.20;;;;;;5034643;28;20025;-75
2021/07/24 02:49:17;;;;;;;2.53;1.05;;;19.20;76.70;;;;;;5037029;28;20025;-75
2021/07/24 02:51:42;;;;;;;1.98;0.85;;;19.20;76.90;;;;;;5039182;28;20052;-75
2021/07/24 02:54:08;;;;;;;2.63;1.10;;;19.30;76.60;;;;;;5044152;28;20041;-74
2021/07/24 02:56:34;;;;;;;2.50;1.17;;;19.30;76.70;;;;;;5059185;28;20029;-74
2021/07/24 02:58:59;;;;;;;2.55;1.20;;;19.40;76.40;;;;;;5056189;28;20044;-75
2021/07/24 03:01:25;;;;;;;1.98;1.02;;;19.30;76.60;;;;;;5059142;28;20021;-75
2021/07/24 03:03:53;;;;;;;2.65;1.30;;;19.40;76.70;;;;;;5056059;28;20139;-75
2021/07/24 03:06:18;;;;;;;1.42;0.90;;;19.30;76.90;;;;;;5058832;28;20104;-74
2021/07/24 03:08:44;;;;;;;2.83;1.30;;;19.30;76.80;;;;;;5050489;28;20071;-75
2021/07/24 03:11:09;;;;;;;1.70;1.00;;;19.30;77.00;;;;;;5038921;28;20029;-74
2021/07/24 03:13:35;;;;;;;1.83;0.90;;;19.30;76.80;;;;;;5048607;28;20384;-75
2021/07/24 03:16:01;;;;;;;3.03;1.13;;;19.30;76.70;;;;;;5058586;28;20025;-75
2021/07/24 03:18:26;;;;;;;1.92;1.02;;;19.10;77.20;;;;;;5057400;28;20021;-75
2021/07/24 03:20:54;;;;;;;1.50;1.00;;;19.10;77.30;;;;;;5058654;28;20025;-74
2021/07/24 03:23:20;;;;;;;1.52;1.08;;;19.00;77.50;;;;;;5041725;28;20045;-75
2021/07/24 03:25:45;;;;;;;2.10;1.02;;;19.20;77.00;;;;;;5038547;28;20060;-74
2021/07/24 03:28:11;;;;;;;1.55;0.90;;;19.00;77.30;;;;;;5038571;28;20033;-74
2021/07/24 03:30:38;;;;;;;1.95;1.30;;;19.00;77.60;;;;;;5050778;28;20568;-74
2021/07/24 03:33:04;;;;;;;1.38;1.10;;;18.90;77.70;;;;;;5058223;28;20067;-75
2021/07/24 03:35:30;;;;;;;1.90;0.90;;;19.00;77.80;;;;;;5058371;28;20237;-75
2021/07/24 03:38:05;;;;;;;1.33;0.80;;;18.90;78.10;;;;;;5056809;28;20111;-74
2021/07/24 03:40:31;;;;;;;1.98;1.10;;;18.90;78.10;;;;;;5058425;28;20028;-75
2021/07/24 03:42:57;;;;;;;3.20;1.08;;;18.90;77.80;;;;;;5058157;28;20060;-74
2021/07/24 03:45:23;;;;;;;1.38;0.90;;;19.00;77.50;;;;;;5056679;28;20463;-75
2021/07/24 03:47:48;;;;;;;1.25;0.90;;;19.00;77.10;;;;;;5045548;28;20025;-75
2021/07/24 03:50:14;;;;;;;1.23;0.75;;;19.10;76.60;;;;;;5058377;28;20071;-74
2021/07/24 03:52:40;;;;;;;1.40;0.88;;;19.00;76.90;;;;;;5052943;28;20021;-75
2021/07/24 03:55:09;;;;;;;2.35;1.00;;;19.00;76.90;;;;;;5038349;28;20025;-75
2021/07/24 03:57:34;;;;;;;1.48;0.95;;;19.00;77.00;;;;;;5048114;28;20418;-75
2021/07/24 04:00:03;;;;;;;3.90;1.15;;;18.90;77.30;;;;;;5055972;28;20029;-75
2021/07/24 04:02:28;;;;;;;2.20;1.17;;;18.80;77.70;;;;;;5056431;28;20087;-75
2021/07/24 04:04:55;;;;;;;1.58;0.95;;;19.00;77.30;;;;;;5055231;28;20021;-75
2021/07/24 04:07:22;;;;;;;1.70;0.95;;;19.00;77.20;;;;;;5058073;28;20056;-75
2021/07/24 04:09:47;;;;;;;1.38;0.80;;;19.00;77.50;;;;;;5057839;28;20055;-75
2021/07/24 04:12:13;;;;;;;1.95;1.08;;;19.00;77.30;;;;;;5056243;28;20021;-75
2021/07/24 04:14:40;;;;;;;1.38;0.73;;;19.00;77.60;;;;;;5056242;28;20154;-74
2021/07/24 04:17:06;;;;;;;1.50;0.80;;;18.90;77.90;;;;;;5056187;28;20064;-75
2021/07/24 04:19:32;;;;;;;2.00;1.15;;;18.90;77.80;;;;;;5057636;28;20033;-75
2021/07/24 04:21:58;;;;;;;2.50;1.08;;;19.00;77.60;;;;;;5037906;28;20055;-75
2021/07/24 04:24:23;;;;;;;1.70;1.00;;;19.00;77.40;;;;;;5037751;28;20380;-75
2021/07/24 04:26:49;;;;;;;2.15;1.10;;;18.90;77.80;;;;;;5053451;28;20037;-75
2021/07/24 04:29:16;;;;;;;2.00;0.90;;;18.80;78.00;;;;;;5056044;28;20029;-75
2021/07/24 04:31:41;;;;;;;1.67;1.00;;;18.80;78.00;;;;;;5057319;28;20052;-75
2021/07/24 04:34:07;;;;;;;1.88;0.95;;;18.80;78.40;;;;;;5046883;28;20025;-75
2021/07/24 04:36:32;;;;;;;2.47;1.10;;;18.70;78.70;;;;;;5037723;28;20017;-75
2021/07/24 04:38:58;;;;;;;1.40;0.90;;;18.60;79.10;;;;;;5037357;28;20022;-75
2021/07/24 04:41:24;;;;;;;2.20;1.05;;;18.70;79.10;;;;;;5035868;28;20025;-75
2021/07/24 04:43:50;;;;;;;1.75;0.93;;;18.60;79.30;;;;;;5037157;28;20033;-74
2021/07/24 04:46:18;;;;;;;1.42;0.80;;;18.60;79.20;;;;;;5039162;28;20025;-75
2021/07/24 04:48:43;;;;;;;2.10;1.00;;;18.60;79.50;;;;;;5037273;28;20033;-74
2021/07/24 04:51:09;;;;;;;2.50;1.27;;;18.60;79.50;;;;;;5037220;28;20025;-75
2021/07/24 04:53:36;;;;;;;1.90;1.17;;;18.70;79.30;;;;;;5037022;28;20029;-75
2021/07/24 04:56:02;;;;;;;2.08;0.90;;;18.70;79.30;;;;;;5051972;28;20687;-75
2021/07/24 04:58:31;;;;;;;1.55;0.93;;;18.80;78.80;;;;;;5056210;28;20559;-75
2021/07/24 05:00:56;;;;;;;2.85;0.85;;;18.70;79.40;;;;;;5056246;28;20534;-75
2021/07/24 05:03:22;;;;;;;2.25;1.08;;;18.70;79.50;;;;;;5056925;28;20061;-75
2021/07/24 05:05:49;;;;;;;1.50;1.00;;;18.80;79.20;;;;;;5056766;28;20032;-74
2021/07/24 05:08:16;;;;;;;1.58;0.90;;;18.80;78.70;;;;;;5036798;28;20026;-75
2021/07/24 05:10:42;;;;;;;2.08;0.80;;;18.80;79.10;;;;;;5017046;28;20061;-74
2021/07/24 05:13:07;;;;;;;1.83;1.05;;;18.90;78.60;;;;;;5016046;28;20400;-75
2021/07/24 05:15:33;;;;;;;2.53;1.05;;;18.80;78.80;;;;;;5021923;28;20038;-74
2021/07/24 05:17:59;;;;;;;2.20;0.82;;;18.80;79.00;;;;;;5036607;28;20029;-75
2021/07/24 05:20:25;;;;;;;3.55;0.90;;;18.80;78.90;;;;;;5036430;28;20071;-74
2021/07/24 05:22:51;;;;;;;2.20;0.98;;;18.80;79.00;;;;;;5041000;28;20035;-75
2021/07/24 05:25:17;;;;;;;2.15;1.02;;;18.80;79.00;;;;;;5056383;28;20029;-74
2021/07/24 05:27:42;;;;;;;1.30;0.90;;;18.80;79.10;;;;;;5056183;28;20080;-74
2021/07/24 05:30:09;;;;;;;1.67;0.80;;;18.80;79.10;;;;;;5049611;28;20504;-75
2021/07/24 05:32:34;;;;;;;1.45;0.80;;;18.80;79.40;;;;;;5036420;28;20050;-74
2021/07/24 05:35:00;;;;;;;1.55;0.80;;;19.10;78.70;;;;;;5036210;28;20045;-74
2021/07/24 05:37:27;;;;;;;2.15;1.20;;;19.20;78.00;;;;;;5036138;28;20030;-74
2021/07/24 05:39:52;;;;;;;1.98;0.90;;;19.30;77.90;;;;;;5040638;28;20119;-75
2021/07/24 05:42:18;;;;;;;1.50;0.85;;;19.40;77.80;;;;;;5055997;28;20063;-75
2021/07/24 05:44:44;;;;;;;1.20;0.80;;;19.50;77.30;;;;;;5055969;28;20391;-74
2021/07/24 05:47:09;;;;;;;2.00;0.90;;;19.60;77.50;;;;;;5051861;28;20143;-75
2021/07/24 05:49:37;;;;;;;1.40;0.70;;;19.60;77.40;;;;;;5055915;28;20056;-75
2021/07/24 05:52:11;;;;;;;1.58;0.88;;;19.50;77.70;;;;;;5056002;28;20108;-74
2021/07/24 05:54:37;;;;;;;1.60;0.75;;;19.50;77.50;;;;;;5036133;28;20018;-75
2021/07/24 05:57:07;;;;;;;2.17;0.88;;;19.60;77.50;;;;;;5035968;28;20028;-76
2021/07/24 05:59:36;;;;;;;1.30;0.70;;;19.70;77.00;;;;;;5032723;28;20557;-75
2021/07/24 06:02:05;;;;;;;1.27;0.85;;;19.80;76.60;;;;;;5024663;28;20525;-75
2021/07/24 06:04:34;;;;;;;1.27;0.60;;;19.80;76.70;;;;;;5006592;28;20508;-77
2021/07/24 06:07:00;;;;;;;1.83;0.82;;;19.80;76.60;;;;;;5022630;28;20033;-76
2021/07/24 06:09:27;;;;;;;1.42;0.65;;;19.90;76.00;;;;;;5035350;28;20017;-75
2021/07/24 06:11:52;;;;;;;3.10;0.80;;;20.20;75.50;;;;;;5040291;28;20416;-75
2021/07/24 06:14:18;;;;;;;1.35;0.50;;;20.40;74.60;;;;;;5040616;28;20452;-74
2021/07/24 06:16:43;;;;;;;1.60;0.70;;;20.20;75.40;;;;;;5035525;28;20108;-75
2021/07/24 06:19:09;;;;;;;1.30;0.70;;;20.20;75.70;;;;;;5035448;28;20109;-75
2021/07/24 06:21:35;;;;;;;1.80;0.80;;;20.30;75.50;;;;;;5040021;28;20037;-75
2021/07/24 06:24:00;;;;;;;1.38;0.70;;;20.30;75.40;;;;;;5035013;28;20022;-74
2021/07/24 06:26:26;;;;;;;1.33;0.60;;;20.40;75.00;;;;;;5032683;28;20025;-75
2021/07/24 06:28:52;;;;;;;1.88;0.70;;;20.20;75.60;;;;;;5032394;28;20391;-74
2021/07/24 06:31:17;;;;;;;3.30;0.82;;;20.20;75.50;;;;;;5023982;28;20010;-75
2021/07/24 06:33:44;;;;;;;1.10;0.70;;;20.30;75.00;;;;;;5025932;28;20049;-76
2021/07/24 06:36:10;;;;;;;0.88;0.50;;;20.40;74.90;;;;;;5027035;28;20384;-75
2021/07/24 06:38:36;;;;;;;1.20;0.50;;;20.50;74.00;;;;;;5015586;28;20026;-75
2021/07/24 06:41:05;;;;;;;0.93;0.40;;;20.40;74.30;;;;;;5030282;28;20036;-76
2021/07/24 06:43:30;;;;;;;1.20;0.60;;;20.30;74.10;;;;;;5024898;28;20018;-75
2021/07/24 06:45:56;;;;;;;1.15;0.50;;;20.30;74.40;;;;;;5025979;28;20421;-75
2021/07/24 06:48:22;;;;;;;1.15;0.50;;;20.30;74.30;;;;;;5027649;28;20053;-75
2021/07/24 06:50:47;;;;;;;0.88;0.50;;;20.30;73.70;;;;;;5017842;28;20437;-75
2021/07/24 06:53:13;;;;;;;1.30;0.55;;;20.30;73.80;;;;;;5029202;28;20075;-75
2021/07/24 06:55:38;;;;;;;1.42;0.57;;;20.30;73.60;;;;;;5055200;28;20083;-75
2021/07/24 06:58:04;;;;;;;2.38;0.63;;;20.20;73.80;;;;;;5032499;28;20137;-76
2021/07/24 07:00:31;;;;;;;1.15;0.45;;;20.20;74.20;;;;;;5036999;28;20025;-75
2021/07/24 07:02:58;;;;;;;1.85;0.50;;;20.30;73.80;;;;;;5052033;28;20531;-75
2021/07/24 07:05:24;;;;;;;1.98;0.60;;;20.30;73.80;;;;;;5048531;28;20447;-74
2021/07/24 07:07:50;;;;;;;1.65;0.52;;;20.30;74.00;;;;;;5033967;28;20064;-75
2021/07/24 07:10:15;;;;;;;0.80;0.50;;;20.30;73.80;;;;;;5032900;28;20018;-75
2021/07/24 07:12:41;;;;;;;1.02;0.45;;;20.40;73.70;;;;;;5039163;28;20030;-75
2021/07/24 07:15:08;;;;;;;1.55;0.50;;;20.60;73.40;;;;;;5027199;28;20029;-75
2021/07/24 07:17:37;;;;;;;1.42;0.50;;;20.70;72.90;;;;;;5030260;28;20025;-75
2021/07/24 07:20:06;;;;;;;1.17;0.40;;;20.90;72.10;;;;;;5054003;28;20025;-75
2021/07/24 07:22:32;;;;;;;1.25;0.57;;;21.00;71.30;;;;;;5039446;28;20033;-75
2021/07/24 07:24:57;;;;;;;1.08;0.47;;;20.90;71.70;;;;;;5054684;28;20032;-75
2021/07/24 07:27:23;;;;;;;1.02;0.60;;;20.80;71.80;;;;;;5042215;28;20922;-75
2021/07/24 07:29:49;;;;;;;0.98;0.50;;;20.50;72.60;;;;;;5054449;28;20402;-75
2021/07/24 07:32:14;;;;;;;1.85;0.60;;;20.60;72.60;;;;;;5053924;28;20037;-76
2021/07/24 07:34:41;;;;;;;1.35;0.60;;;20.50;72.70;;;;;;5043330;28;20132;-76
2021/07/24 07:37:07;;;;;;;1.40;0.50;;;20.50;72.80;;;;;;5037686;28;20025;-75
2021/07/24 07:39:32;;;;;;;0.90;0.47;;;20.50;72.80;;;;;;5038086;28;20471;-75
2021/07/24 07:41:58;;;;;;;1.63;0.80;;;20.50;72.60;;;;;;5050237;28;20123;-75
2021/07/24 07:44:24;;;;;;;0.90;0.55;;;20.60;72.60;;;;;;5058060;28;20036;-74
2021/07/24 07:46:51;;;;;;;2.55;1.13;;;20.60;73.00;;;;;;5047406;28;20017;-75
2021/07/24 07:49:17;;;;;;;1.58;0.98;;;20.70;72.30;;;;;;5063051;28;20065;-75
2021/07/24 07:51:43;;;;;;;1.30;0.60;;;20.80;73.00;;;;;;5058256;28;20521;-74
2021/07/24 07:54:09;;;;;;;3.38;2.67;;;21.00;71.10;;;;;;5042160;28;20533;-75
2021/07/24 07:56:35;;;;;;;1.95;0.60;;;21.40;69.60;;;;;;5055374;28;20033;-75
2021/07/24 07:59:00;;;;;;;1.10;0.50;;;22.80;65.90;;;;;;5058036;28;20035;-75
2021/07/24 08:01:26;;;;;;;0.85;0.50;;;22.90;63.80;;;;;;5057975;28;20032;-75
2021/07/24 08:03:51;;;;;;;1.08;0.50;;;23.90;61.50;;;;;;5045967;28;20030;-75
2021/07/24 08:06:17;;;;;;;0.82;0.32;;;25.00;57.70;;;;;;5037944;28;20037;-75
2021/07/24 08:08:43;;;;;;;1.42;0.40;;;24.70;58.60;;;;;;5036390;28;20022;-75
2021/07/24 08:11:10;;;;;;;0.60;0.30;;;24.80;57.90;;;;;;5048596;28;20027;-75
2021/07/24 08:13:35;;;;;;;0.98;0.40;;;23.90;60.10;;;;;;5045459;28;20148;-75
2021/07/24 08:16:01;;;;;;;1.20;0.40;;;23.30;61.80;;;;;;5036461;28;20050;-75
2021/07/24 08:18:27;;;;;;;0.80;0.30;;;22.70;63.70;;;;;;5055072;28;20024;-75
2021/07/24 08:20:52;;;;;;;0.68;0.30;;;22.20;65.80;;;;;;5056356;28;20896;-75
2021/07/24 08:23:18;;;;;;;1.17;0.50;;;21.90;66.40;;;;;;5056855;28;20033;-75
2021/07/24 08:25:44;;;;;;;1.35;0.60;;;21.70;66.80;;;;;;5053300;28;20025;-75
2021/07/24 08:28:10;;;;;;;1.33;0.40;;;21.80;67.00;;;;;;5037599;28;20041;-75
2021/07/24 08:30:37;;;;;;;0.98;0.40;;;21.80;66.50;;;;;;5037180;28;20021;-75
2021/07/24 08:33:03;;;;;;;0.98;0.50;;;21.90;66.20;;;;;;5036891;28;20179;-75
2021/07/24 08:35:28;;;;;;;1.65;0.68;;;22.10;66.00;;;;;;5034240;28;20068;-75
2021/07/24 08:37:54;;;;;;;1.05;0.43;;;22.10;65.90;;;;;;5017541;28;20034;-75
2021/07/24 08:40:21;;;;;;;1.75;0.68;;;22.00;66.80;;;;;;5026992;28;20443;-75
2021/07/24 08:42:47;;;;;;;1.42;0.60;;;21.60;72.00;;;;;;5037273;28;20567;-75
2021/07/24 08:45:15;;;;;;;1.90;0.60;;;21.20;77.00;;;;;;5037102;28;20022;-75
2021/07/24 08:47:40;;;;;;;1.65;0.63;;;20.80;75.50;;;;;;5036913;28;20123;-75
2021/07/24 08:50:09;;;;;;;2.00;0.60;;;20.80;76.10;;;;;;5049565;28;20022;-75
2021/07/24 08:52:35;;;;;;;1.27;0.45;;;20.80;76.20;;;;;;5043480;28;20029;-75
2021/07/24 08:55:04;;;;;;;1.05;0.60;;;20.90;75.60;;;;;;5036939;28;20025;-75
2021/07/24 08:57:35;;;;;;;1.23;0.63;;;21.00;76.30;;;;;;5035241;28;20040;-75
2021/07/24 09:00:13;;;;;;;1.20;0.50;;;21.30;75.80;;;;;;5052328;28;20044;-75
2021/07/24 09:02:41;;;;;;;0.60;0.32;;;21.30;76.70;;;;;;5017042;28;20052;-75
2021/07/24 09:05:09;;;;;;;1.30;0.43;;;22.10;72.20;;;;;;5029596;28;20021;-75
2021/07/24 09:07:48;;;;;;;0.60;0.40;;;22.50;71.50;;;;;;5036410;28;20433;-76
2021/07/24 09:10:15;;;;;;;1.25;0.52;;;23.20;69.30;;;;;;5050752;28;20026;-75
2021/07/24 09:12:45;;;;;;;1.02;0.40;;;23.60;67.90;;;;;;5033351;28;20137;-75
2021/07/24 09:15:14;;;;;;;0.90;0.43;;;24.50;63.00;;;;;;5028773;28;20087;-75
2021/07/24 09:17:40;;;;;;;0.70;0.22;;;25.10;62.30;;;;;;5040281;28;20043;-75
2021/07/24 09:20:07;;;;;;;1.25;0.40;;;25.10;61.90;;;;;;5034091;28;20499;-75
2021/07/24 09:22:38;;;;;;;0.90;0.35;;;25.00;62.50;;;;;;5035998;28;20411;-75
2021/07/24 09:25:18;;;;;;;0.70;0.30;;;24.40;63.70;;;;;;5049906;28;20032;-80
2021/07/24 09:27:51;;;;;;;0.70;0.30;;;25.40;61.90;;;;;;5053975;28;20028;-75
2021/07/24 09:30:35;;;;;;;1.02;0.40;;;25.00;61.30;;;;;;5024158;28;20029;-75
2021/07/24 09:33:11;;;;;;;1.10;0.40;;;26.30;58.20;;;;;;5035826;28;20056;-78
2021/07/24 09:35:42;;;;;;;1.20;0.32;;;26.70;56.00;;;;;;5034455;28;20084;-75
2021/07/24 09:38:11;;;;;;;0.70;0.25;;;27.30;54.20;;;;;;5035979;28;20112;-77
2021/07/24 09:40:37;;;;;;;1.00;0.40;;;26.80;53.50;;;;;;5032768;28;20579;-75
2021/07/24 09:43:04;;;;;;;0.98;0.22;;;26.30;55.80;;;;;;5035910;28;20579;-76
2021/07/24 09:45:30;;;;;;;0.98;0.38;;;25.30;58.50;;;;;;5039971;28;20037;-75
2021/07/24 09:48:13;;;;;;;1.27;0.55;;;24.70;59.40;;;;;;5033769;28;20113;-76
2021/07/24 09:50:39;;;;;;;1.05;0.47;;;24.30;60.80;;;;;;5042486;28;20026;-75
2021/07/24 09:53:05;;;;;;;1.02;0.35;;;23.90;62.30;;;;;;5031728;28;20025;-78
2021/07/24 09:55:30;;;;;;;1.10;0.40;;;23.60;63.60;;;;;;5037728;28;20033;-75
2021/07/24 09:57:57;;;;;;;0.85;0.38;;;23.40;64.60;;;;;;5036134;28;20471;-75
2021/07/24 10:00:27;;;;;;;0.90;0.38;;;23.20;64.90;;;;;;5034387;28;20138;-75
2021/07/24 10:03:00;;;;;;;2.75;0.50;;;23.20;65.20;;;;;;5043435;28;20037;-73
2021/07/24 10:05:34;;;;;;;1.13;0.50;;;23.00;66.30;;;;;;5055419;28;20408;-75
2021/07/24 10:08:19;;;;;;;0.93;0.50;;;23.00;65.60;;;;;;5055100;28;20052;-77
2021/07/24 10:10:45;;;;;;;0.43;0.30;;;23.20;65.60;;;;;;5029489;28;20510;-75
2021/07/24 10:13:13;;;;;;;1.30;0.60;;;23.30;63.50;;;;;;5030796;28;20108;-76
2021/07/24 10:15:41;;;;;;;0.60;0.30;;;23.10;63.40;;;;;;5034179;28;20033;-76
2021/07/24 10:18:09;;;;;;;1.90;0.50;;;22.90;65.00;;;;;;5037348;28;20021;-76
2021/07/24 10:20:40;;;;;;;1.17;0.40;;;23.00;65.40;;;;;;5054812;28;20094;-78
2021/07/24 10:23:06;;;;;;;1.67;0.60;;;22.80;66.10;;;;;;5053812;28;20028;-77
2021/07/24 10:25:48;;;;;;;0.88;0.30;;;22.60;67.40;;;;;;5030557;28;20779;-74
2021/07/24 10:28:22;;;;;;;1.08;0.50;;;22.20;69.30;;;;;;5031887;28;20036;-75
2021/07/24 10:30:50;;;;;;;1.73;0.43;;;21.80;70.00;;;;;;5032860;28;20049;-78
2021/07/24 10:33:16;;;;;;;1.15;0.65;;;21.70;70.90;;;;;;5033212;28;20416;-75
2021/07/24 10:35:43;;;;;;;1.10;0.70;;;21.70;71.90;;;;;;5026232;28;20503;-78
2021/07/24 10:38:33;;;;;;;0.50;0.20;;;21.70;70.60;;;;;;5034382;28;20037;-77
2021/07/24 10:41:21;;;;;;;1.10;0.50;;;21.30;71.40;;;;;;5029670;28;20044;-77
2021/07/24 10:44:00;;;;;;;0.80;0.40;;;21.20;72.40;;;;;;5024260;28;20026;-77
2021/07/24 10:47:01;;;;;;;1.52;0.60;;;21.30;73.00;;;;;;5029556;28;20381;-76
2021/07/24 10:49:32;;;;;;;1.35;0.68;;;21.10;73.00;;;;;;5028744;28;20378;-76
2021/07/24 10:51:59;;;;;;;1.52;0.90;;;21.00;73.80;;;;;;5028022;28;20029;-78
2021/07/24 10:54:29;;;;;;;1.75;0.77;;;20.80;74.80;;;;;;5033604;28;20025;-76
2021/07/24 10:56:55;;;;;;;1.40;0.70;;;20.40;77.00;;;;;;5029304;28;20041;-77
2021/07/24 10:59:29;;;;;;;1.92;0.77;;;20.20;77.40;;;;;;5032376;28;20440;-76
2021/07/24 11:01:59;;;;;;;1.38;0.80;;;20.00;78.60;;;;;;5034371;28;20040;-77
2021/07/24 11:04:37;;;;;;;2.78;1.20;;;19.90;78.30;;;;;;5031345;28;20036;-77
2021/07/24 11:07:12;;;;;;;1.17;0.80;;;19.90;79.80;;;;;;5027812;28;20026;-76
2021/07/24 11:09:39;;;;;;;1.67;0.70;;;19.80;80.70;;;;;;5034986;28;20029;-78
2021/07/24 11:12:07;;;;;;;0.85;0.50;;;19.80;80.10;;;;;;5034764;28;20136;-76
2021/07/24 11:14:42;;;;;;;1.38;0.70;;;19.90;79.40;;;;;;5031427;28;20554;-75
2021/07/24 11:17:08;;;;;;;1.15;0.57;;;19.90;79.00;;;;;;5037947;28;20029;-76
2021/07/24 11:19:41;;;;;;;1.80;0.77;;;19.80;79.70;;;;;;5036824;28;20028;-77
2021/07/24 11:22:12;;;;;;;2.05;1.00;;;19.90;79.50;;;;;;5033038;28;20120;-76
2021/07/24 11:24:39;;;;;;;1.92;0.77;;;19.90;79.60;;;;;;5033818;28;20033;-77
2021/07/24 11:27:06;;;;;;;2.03;1.10;;;20.10;79.90;;;;;;5034796;28;20022;-77
2021/07/24 11:29:32;;;;;;;1.08;0.75;;;20.40;79.10;;;;;;5035939;28;20032;-77
2021/07/24 11:32:02;;;;;;;1.08;0.55;;;20.40;79.10;;;;;;5037398;28;20049;-75
2021/07/24 11:34:30;;;;;;;1.13;0.60;;;20.40;79.30;;;;;;5033917;28;20030;-77
2021/07/24 11:36:57;;;;;;;1.20;0.68;;;20.50;77.40;;;;;;5035586;28;20036;-77
2021/07/24 11:39:28;;;;;;;2.08;0.70;;;20.40;78.20;;;;;;5037704;28;20032;-77
2021/07/24 11:41:54;;;;;;;1.75;0.65;;;20.30;78.70;;;;;;5056901;28;20033;-76
2021/07/24 11:44:38;;;;;;;1.92;0.82;;;20.30;79.10;;;;;;5029607;28;20095;-79
2021/07/24 11:47:04;;;;;;;1.15;0.70;;;20.10;80.20;;;;;;5030476;28;20488;-78
2021/07/24 11:49:31;;;;;;;1.92;0.93;;;20.10;80.20;;;;;;5028445;28;20022;-77
2021/07/24 11:51:58;;;;;;;1.20;0.75;;;20.10;80.80;;;;;;5023275;28;20022;-77
2021/07/24 11:54:50;;;;;;;1.92;0.90;;;20.00;80.00;;;;;;5029259;28;20067;-77
2021/07/24 11:57:27;;;;;;;1.10;0.70;;;19.90;80.90;;;;;;5025172;28;20037;-77
2021/07/24 11:59:53;;;;;;;2.70;0.77;;;19.80;80.90;;;;;;5039696;28;20411;-77
2021/07/24 12:02:19;;;;;;;0.98;0.55;;;19.90;81.60;;;;;;5041210;28;20029;-76
2021/07/24 12:04:49;;;;;;;1.80;0.70;;;19.80;81.70;;;;;;5036901;28;20027;-77
2021/07/24 12:07:19;;;;;;;1.77;0.77;;;19.70;81.80;;;;;;5057970;28;20024;-77
2021/07/24 12:09:45;;;;;;;1.42;0.82;;;19.50;82.70;;;;;;5057708;28;20040;-77
2021/07/24 12:12:11;;;;;;;1.20;0.50;;;19.30;84.30;;;;;;5056826;28;20489;-77
2021/07/24 12:14:37;;;;;;;2.00;0.80;;;19.00;84.30;;;;;;5019580;28;20026;-77
2021/07/24 12:17:10;;;;;;;1.42;0.60;;;19.00;84.80;;;;;;5044983;28;20268;-77
2021/07/24 12:19:41;;;;;;;1.35;0.68;;;18.90;86.10;;;;;;5057017;28;20480;-77
2021/07/24 12:22:19;;;;;;;1.65;0.77;;;18.90;86.00;;;;;;5054942;28;20027;-77
2021/07/24 12:24:47;;;;;;;1.55;0.70;;;18.80;86.80;;;;;;5056441;28;20454;-77
2021/07/24 12:27:15;;;;;;;1.92;0.80;;;18.50;87.20;;;;;;5039934;28;20057;-76
2021/07/24 12:29:52;;;;;;;1.20;0.90;;;18.50;87.90;;;;;;5040405;28;20598;-77
2021/07/24 12:32:19;;;;;;;0.77;0.45;;;18.50;87.90;;;;;;5033381;28;20075;-77
2021/07/24 12:34:46;;;;;;;1.65;0.70;;;18.50;86.80;;;;;;5036722;28;20032;-77
2021/07/24 12:37:30;;;;;;;1.75;0.70;;;18.60;86.10;;;;;;5034484;28;20414;-77
2021/07/24 12:39:55;;;;;;;1.40;0.70;;;18.70;85.50;;;;;;5037011;28;20087;-77
2021/07/24 12:42:33;;;;;;;0.75;0.50;;;18.80;85.50;;;;;;5036452;28;20021;-77
2021/07/24 12:44:59;;;;;;;1.35;0.60;;;18.80;85.00;;;;;;5036809;28;20029;-77
2021/07/24 12:47:26;;;;;;;1.33;0.55;;;18.80;84.80;;;;;;5037267;28;20026;-77
2021/07/24 12:49:53;;;;;;;1.60;0.50;;;18.90;84.80;;;;;;5037098;28;20029;-77
2021/07/24 12:52:27;;;;;;;2.05;0.70;;;19.00;84.80;;;;;;5034803;28;20390;-77
2021/07/24 12:55:15;;;;;;;2.03;0.50;;;19.10;85.00;;;;;;5025983;28;20761;-76